createdAt,value
2022-10-14T00:04:17.853Z,8.32
2022-10-14T00:09:19.144Z,8.27
2022-10-14T00:14:21.089Z,8.50
2022-10-14T00:19:22.386Z,8.02
2022-10-14T00:24:23.748Z,7.40
2022-10-14T00:29:25.165Z,7.67
2022-10-14T00:34:26.443Z,7.55
2022-10-14T00:39:27.840Z,7.90
2022-10-14T00:44:29.165Z,8.97
2022-10-14T00:49:42.045Z,8.10
2022-10-14T00:54:50.832Z,7.00
2022-10-14T00:59:54.382Z,6.47
2022-10-14T01:04:55.777Z,6.78
2022-10-14T01:10:17.319Z,7.50
2022-10-14T01:15:34.054Z,8.60
2022-10-14T01:20:45.610Z,8.02
2022-10-14T01:25:57.566Z,7.37
2022-10-14T01:31:02.709Z,7.50
2022-10-14T01:36:06.819Z,6.97
2022-10-14T01:41:17.177Z,6.67
2022-10-14T01:46:20.171Z,6.43
2022-10-14T01:51:29.320Z,6.20
2022-10-14T01:56:31.381Z,5.97
2022-10-14T02:01:34.801Z,6.30
2022-10-14T02:06:38.238Z,6.20
2022-10-14T02:11:52.464Z,5.70
2022-10-14T02:17:00.332Z,5.43
2022-10-14T02:22:03.005Z,5.55
2022-10-14T02:27:07.001Z,5.37
2022-10-14T02:32:09.800Z,4.70
2022-10-14T02:37:12.728Z,5.38
2022-10-14T02:42:13.977Z,4.85
2022-10-14T02:47:15.251Z,5.40
2022-10-14T02:52:16.651Z,5.50
2022-10-14T02:57:17.905Z,5.00
2022-10-14T03:02:19.565Z,5.00
2022-10-14T03:07:21.052Z,4.75
2022-10-14T03:12:22.571Z,5.17
2022-10-14T03:17:24.132Z,5.07
2022-10-14T03:22:25.760Z,4.38
2022-10-14T03:27:27.045Z,4.60
2022-10-14T03:32:28.368Z,4.70
2022-10-14T03:37:29.599Z,4.32
2022-10-14T03:42:30.878Z,5.03
2022-10-14T03:47:32.220Z,4.73
2022-10-14T03:52:33.481Z,5.20
2022-10-14T03:57:34.746Z,4.67
2022-10-14T04:02:36.197Z,4.77
2022-10-14T04:07:37.454Z,5.15
2022-10-14T04:12:40.144Z,4.50
2022-10-14T04:17:41.387Z,4.78
2022-10-14T04:22:42.875Z,4.85
2022-10-14T04:27:44.134Z,4.80
2022-10-14T04:32:46.415Z,5.00
2022-10-14T04:37:47.665Z,4.72
2022-10-14T04:42:48.950Z,4.77
2022-10-14T04:47:50.237Z,4.45
2022-10-14T04:52:51.467Z,4.57
2022-10-14T04:57:52.796Z,4.70
2022-10-14T05:02:54.105Z,5.20
2022-10-14T05:07:55.362Z,5.05
2022-10-14T05:12:56.737Z,4.10
2022-10-14T05:17:58.115Z,5.68
2022-10-14T05:22:59.575Z,6.13
2022-10-14T05:28:00.848Z,7.53
2022-10-14T05:33:02.122Z,6.50
2022-10-14T05:38:04.418Z,5.70
2022-10-14T05:43:06.423Z,5.93
2022-10-14T05:48:07.659Z,6.38
2022-10-14T05:53:09.290Z,6.97
2022-10-14T05:58:10.613Z,6.23
2022-10-14T06:03:12.107Z,5.68
2022-10-14T06:08:13.413Z,5.40
2022-10-14T06:13:14.680Z,4.90
2022-10-14T06:18:15.977Z,4.72
2022-10-14T06:23:17.221Z,4.60
2022-10-14T06:28:18.624Z,4.43
2022-10-14T06:33:20.300Z,4.85
2022-10-14T06:38:21.769Z,5.03
2022-10-14T06:43:23.124Z,5.27
2022-10-14T06:48:24.353Z,4.95
2022-10-14T06:53:25.877Z,5.53
2022-10-14T06:58:27.200Z,4.57
2022-10-14T07:03:28.519Z,6.50
2022-10-14T07:08:29.794Z,5.63
2022-10-14T07:13:31.279Z,5.87
2022-10-14T07:18:32.528Z,6.72
2022-10-14T07:23:33.988Z,5.60
2022-10-14T07:28:35.394Z,5.50
2022-10-14T07:38:44.577Z,4.72
2022-10-14T07:43:49.786Z,5.70
2022-10-14T07:48:57.313Z,5.47
2022-10-14T07:54:00.025Z,5.65
2022-10-14T07:59:01.358Z,6.57
2022-10-14T08:04:02.709Z,5.53
2022-10-14T08:09:05.412Z,5.45
2022-10-14T08:14:06.894Z,7.30
2022-10-14T08:19:14.196Z,5.57
2022-10-14T08:24:16.103Z,6.25
2022-10-14T08:29:17.413Z,6.00
2022-10-14T08:34:21.103Z,4.95
2022-10-14T08:39:22.431Z,6.03
2022-10-14T08:44:28.573Z,6.10
2022-10-14T08:49:35.436Z,5.30
2022-10-14T08:54:38.254Z,5.50
2022-10-14T08:59:41.011Z,4.40
2022-10-14T09:04:42.307Z,5.50
2022-10-14T09:09:44.873Z,4.43
2022-10-14T09:14:47.520Z,5.33
2022-10-14T09:19:50.325Z,5.03
2022-10-14T09:24:51.583Z,5.10
2022-10-14T09:29:58.919Z,4.17
2022-10-14T09:35:00.553Z,3.70
2022-10-14T09:40:04.676Z,5.18
2022-10-14T09:45:09.282Z,5.70
2022-10-14T09:50:14.455Z,4.43
2022-10-14T09:55:19.885Z,4.70
2022-10-14T10:00:28.697Z,3.60
2022-10-14T10:05:31.277Z,3.80
2022-10-14T10:10:35.073Z,3.78
2022-10-14T10:15:36.639Z,3.50
2022-10-14T10:20:38.015Z,2.80
2022-10-14T10:25:39.323Z,3.27
2022-10-14T10:30:52.994Z,3.00
2022-10-14T10:36:04.380Z,3.28
2022-10-14T10:41:24.343Z,2.03
2022-10-14T10:46:25.739Z,2.30
2022-10-14T10:51:27.645Z,2.47
2022-10-14T10:56:33.599Z,3.10
2022-10-14T11:01:50.542Z,2.75
2022-10-14T11:07:24.024Z,2.50
2022-10-14T11:12:29.184Z,2.63
2022-10-14T11:17:36.824Z,2.20
2022-10-14T11:22:56.902Z,2.65
2022-10-14T11:28:16.707Z,2.30
2022-10-14T11:33:17.959Z,1.80
2022-10-14T11:38:19.351Z,2.20
2022-10-14T11:43:39.469Z,2.00
2022-10-14T11:48:51.205Z,2.00
2022-10-14T11:54:12.828Z,2.10
2022-10-14T11:59:33.151Z,2.15
2022-10-14T12:04:37.250Z,2.67
2022-10-14T12:09:41.338Z,2.40
2022-10-14T12:14:44.656Z,2.38
2022-10-14T12:19:46.228Z,2.42
2022-10-14T12:24:52.020Z,1.90
2022-10-14T12:29:55.640Z,1.83
2022-10-14T12:34:58.072Z,2.10
2022-10-14T12:40:02.191Z,2.50
2022-10-14T12:45:14.521Z,3.10
2022-10-14T12:50:15.762Z,2.35
2022-10-14T12:55:18.690Z,2.40
2022-10-14T13:00:23.168Z,2.43
2022-10-14T13:05:38.217Z,2.15
2022-10-14T13:10:45.210Z,1.95
2022-10-14T13:15:50.140Z,2.10
2022-10-14T13:20:52.517Z,2.53
2022-10-14T13:25:56.658Z,2.95
2022-10-14T13:31:17.149Z,2.20
2022-10-14T13:36:33.293Z,1.90
2022-10-14T13:41:34.759Z,2.10
2022-10-14T13:46:39.016Z,2.40
2022-10-14T13:51:40.393Z,1.90
2022-10-14T13:56:41.705Z,1.92
2022-10-14T14:01:43.028Z,2.30
2022-10-14T14:07:03.204Z,2.30
2022-10-14T14:12:07.525Z,2.22
2022-10-14T14:17:17.015Z,2.20
2022-10-14T14:22:24.441Z,2.23
2022-10-14T14:27:26.740Z,2.70
2022-10-14T14:32:31.807Z,2.45
2022-10-14T14:37:53.302Z,2.63
2022-10-14T14:42:58.426Z,2.50
2022-10-14T14:48:04.104Z,3.63
2022-10-14T14:53:15.314Z,2.88
2022-10-14T14:58:23.282Z,2.73
2022-10-14T15:03:30.660Z,2.58
2022-10-14T15:08:34.574Z,2.70
2022-10-14T15:13:38.666Z,2.43
2022-10-14T15:18:43.375Z,2.30
2022-10-14T15:23:46.061Z,2.67
2022-10-14T15:28:47.623Z,2.30
2022-10-14T15:33:49.021Z,1.63
2022-10-14T15:44:29.212Z,1.70
2022-10-14T15:49:32.332Z,1.80
2022-10-14T15:54:33.645Z,1.50
2022-10-14T15:59:34.869Z,2.08
2022-10-14T16:04:39.256Z,1.70
2022-10-14T16:09:47.105Z,1.90
2022-10-14T16:14:48.323Z,1.65
2022-10-14T16:19:49.630Z,1.30
2022-10-14T16:24:51.498Z,1.40
2022-10-14T16:29:52.744Z,1.30
2022-10-14T16:34:54.284Z,1.02
2022-10-14T16:39:55.552Z,1.20
2022-10-14T16:44:56.791Z,2.10
2022-10-14T16:49:59.039Z,2.67
2022-10-14T16:55:00.280Z,2.40
2022-10-14T17:00:02.180Z,2.30
2022-10-14T17:05:03.484Z,2.50
2022-10-14T17:10:05.398Z,2.83
2022-10-14T17:15:06.975Z,3.20
2022-10-14T17:20:09.183Z,3.28
2022-10-14T17:25:10.474Z,4.57
2022-10-14T17:30:12.084Z,6.00
2022-10-14T17:35:15.233Z,3.65
2022-10-14T17:40:16.839Z,3.55
2022-10-14T17:45:19.511Z,3.27
2022-10-14T17:50:22.644Z,4.57
2022-10-14T17:55:23.923Z,5.22
2022-10-14T18:00:25.185Z,3.30
2022-10-14T18:05:26.413Z,2.20
2022-10-14T18:10:27.643Z,2.42
2022-10-14T18:15:30.776Z,2.70
2022-10-14T18:20:32.964Z,1.50
2022-10-14T18:25:34.505Z,2.95
2022-10-14T18:30:38.035Z,4.70
2022-10-14T18:35:39.290Z,3.03
2022-10-14T18:40:40.539Z,1.90
2022-10-14T18:45:41.817Z,1.80
2022-10-14T18:50:43.149Z,11.90
2022-10-14T18:55:44.600Z,3.97
2022-10-14T19:00:45.840Z,2.70
2022-10-14T19:05:47.142Z,2.30
2022-10-14T19:10:48.382Z,3.15
2022-10-14T19:15:58.862Z,2.70
2022-10-14T19:21:08.568Z,2.57
2022-10-14T19:26:11.448Z,2.40
2022-10-14T19:31:14.299Z,2.00
2022-10-14T19:36:16.477Z,1.90
2022-10-14T19:41:18.363Z,1.80
2022-10-14T19:46:20.713Z,2.08
2022-10-14T19:51:21.995Z,1.95
2022-10-14T19:56:24.782Z,2.13
2022-10-14T20:01:27.565Z,2.50
2022-10-14T20:06:31.579Z,2.50
2022-10-14T20:11:33.202Z,2.90
2022-10-14T20:16:34.536Z,3.75
2022-10-14T20:21:36.016Z,3.83
2022-10-14T20:26:37.738Z,3.50
2022-10-14T20:31:39.243Z,3.78
2022-10-14T20:36:40.618Z,5.22
2022-10-14T20:41:41.887Z,5.03
2022-10-14T20:46:43.213Z,10.57
2022-10-14T20:51:44.445Z,4.43
2022-10-14T20:56:45.729Z,4.50
2022-10-14T21:01:47.041Z,5.13
2022-10-14T21:06:48.421Z,5.35
2022-10-14T21:11:49.689Z,4.30
2022-10-14T21:16:50.953Z,3.67
2022-10-14T21:21:52.266Z,3.30
2022-10-14T21:26:53.586Z,3.53
2022-10-14T21:31:54.805Z,3.20
2022-10-14T21:36:56.663Z,3.70
2022-10-14T21:41:57.916Z,3.00
2022-10-14T21:46:59.150Z,3.40
2022-10-14T21:52:00.414Z,3.45
2022-10-14T21:57:02.121Z,3.28
2022-10-14T22:02:03.367Z,3.40
2022-10-14T22:07:05.353Z,3.33
2022-10-14T22:12:06.682Z,3.45
2022-10-14T22:17:08.039Z,3.73
2022-10-14T22:22:09.319Z,3.58
2022-10-14T22:27:10.612Z,3.60
2022-10-14T22:32:11.842Z,3.67
2022-10-14T22:37:13.112Z,3.58
2022-10-14T22:42:14.631Z,3.55
2022-10-14T22:47:16.156Z,3.30
2022-10-14T22:52:17.477Z,3.40
2022-10-14T22:57:18.810Z,3.50
2022-10-14T23:02:20.385Z,3.80
2022-10-14T23:07:21.912Z,4.20
2022-10-14T23:12:23.582Z,4.35
2022-10-14T23:17:24.983Z,3.50
2022-10-14T23:22:40.641Z,3.30
2022-10-14T23:27:53.229Z,3.13
2022-10-14T23:33:04.519Z,2.60
2022-10-14T23:38:05.921Z,3.03
2022-10-14T23:43:07.244Z,2.90
2022-10-14T23:48:08.487Z,2.90
2022-10-14T23:53:09.905Z,2.10
2022-10-14T23:58:11.625Z,2.28
